sensor_id;sensor_type;location;lat;lon;timestamp;P1;durP1;ratioP1;P2;durP2;ratioP2
36253;SDS011;22291;52.250;21.228;2023-05-10T00:01:00;14.65;;;8.08;;
36253;SDS011;22291;52.250;21.228;2023-05-10T00:03:27;15.88;;;9.08;;
36253;SDS011;22291;52.250;21.228;2023-05-10T00:05:53;14.58;;;9.35;;
36253;SDS011;22291;52.250;21.228;2023-05-10T00:08:19;21.95;;;9.40;;
36253;SDS011;22291;52.250;21.228;2023-05-10T00:10:45;13.32;;;8.48;;
36253;SDS011;22291;52.250;21.228;2023-05-10T00:13:12;18.95;;;9.35;;
36253;SDS011;22291;52.250;21.228;2023-05-10T00:15:39;11.68;;;8.23;;
36253;SDS011;22291;52.250;21.228;2023-05-10T00:18:05;17.87;;;7.62;;
36253;SDS011;22291;52.250;21.228;2023-05-10T00:20:32;13.22;;;8.15;;
36253;SDS011;22291;52.250;21.228;2023-05-10T00:22:58;13.68;;;8.10;;
36253;SDS011;22291;52.250;21.228;2023-05-10T00:25:24;14.95;;;8.38;;
36253;SDS011;22291;52.250;21.228;2023-05-10T00:27:50;14.00;;;8.53;;
36253;SDS011;22291;52.250;21.228;2023-05-10T00:30:17;12.47;;;7.30;;
36253;SDS011;22291;52.250;21.228;2023-05-10T00:32:44;13.32;;;7.50;;
36253;SDS011;22291;52.250;21.228;2023-05-10T00:35:11;12.63;;;6.92;;
36253;SDS011;22291;52.250;21.228;2023-05-10T00:37:37;11.68;;;7.28;;
36253;SDS011;22291;52.250;21.228;2023-05-10T00:40:03;11.90;;;7.35;;
36253;SDS011;22291;52.250;21.228;2023-05-10T00:42:31;10.90;;;7.17;;
36253;SDS011;22291;52.250;21.228;2023-05-10T00:44:58;8.38;;;5.97;;
36253;SDS011;22291;52.250;21.228;2023-05-10T00:47:24;13.75;;;6.22;;
36253;SDS011;22291;52.250;21.228;2023-05-10T00:49:50;10.50;;;6.87;;
36253;SDS011;22291;52.250;21.228;2023-05-10T00:52:17;10.75;;;6.92;;
36253;SDS011;22291;52.250;21.228;2023-05-10T00:54:44;12.98;;;6.85;;
36253;SDS011;22291;52.250;21.228;2023-05-10T00:57:10;13.10;;;6.53;;
36253;SDS011;22291;52.250;21.228;2023-05-10T00:59:37;10.38;;;6.37;;
36253;SDS011;22291;52.250;21.228;2023-05-10T01:02:03;13.43;;;6.47;;
36253;SDS011;22291;52.250;21.228;2023-05-10T01:04:29;12.93;;;6.55;;
36253;SDS011;22291;52.250;21.228;2023-05-10T01:06:56;9.23;;;6.03;;
36253;SDS011;22291;52.250;21.228;2023-05-10T01:09:22;19.82;;;8.60;;
36253;SDS011;22291;52.250;21.228;2023-05-10T01:11:51;11.20;;;6.08;;
36253;SDS011;22291;52.250;21.228;2023-05-10T01:14:19;13.60;;;6.00;;
36253;SDS011;22291;52.250;21.228;2023-05-10T01:16:46;8.78;;;6.28;;
36253;SDS011;22291;52.250;21.228;2023-05-10T01:19:29;9.35;;;6.25;;
36253;SDS011;22291;52.250;21.228;2023-05-10T01:30:30;10.82;;;6.60;;
36253;SDS011;22291;52.250;21.228;2023-05-10T01:33:47;11.18;;;6.55;;
36253;SDS011;22291;52.250;21.228;2023-05-10T01:36:10;14.20;;;6.60;;
36253;SDS011;22291;52.250;21.228;2023-05-10T01:39:11;11.48;;;6.75;;
36253;SDS011;22291;52.250;21.228;2023-05-10T01:41:55;9.23;;;6.20;;
36253;SDS011;22291;52.250;21.228;2023-05-10T01:47:46;11.00;;;6.72;;
36253;SDS011;22291;52.250;21.228;2023-05-10T01:50:15;10.18;;;5.95;;
36253;SDS011;22291;52.250;21.228;2023-05-10T01:52:53;12.37;;;7.00;;
36253;SDS011;22291;52.250;21.228;2023-05-10T01:55:21;7.97;;;5.70;;
36253;SDS011;22291;52.250;21.228;2023-05-10T01:57:55;12.18;;;6.47;;
36253;SDS011;22291;52.250;21.228;2023-05-10T02:00:30;11.60;;;6.67;;
36253;SDS011;22291;52.250;21.228;2023-05-10T02:02:57;12.35;;;6.30;;
36253;SDS011;22291;52.250;21.228;2023-05-10T02:05:29;8.93;;;6.00;;
36253;SDS011;22291;52.250;21.228;2023-05-10T02:07:58;13.18;;;5.92;;
36253;SDS011;22291;52.250;21.228;2023-05-10T02:10:27;10.40;;;6.33;;
36253;SDS011;22291;52.250;21.228;2023-05-10T02:12:55;7.80;;;5.83;;
36253;SDS011;22291;52.250;21.228;2023-05-10T02:15:25;10.03;;;5.80;;
36253;SDS011;22291;52.250;21.228;2023-05-10T02:17:54;11.48;;;5.75;;
36253;SDS011;22291;52.250;21.228;2023-05-10T02:20:22;9.83;;;6.30;;
36253;SDS011;22291;52.250;21.228;2023-05-10T02:22:50;11.10;;;5.97;;
36253;SDS011;22291;52.250;21.228;2023-05-10T02:25:20;10.00;;;5.83;;
36253;SDS011;22291;52.250;21.228;2023-05-10T02:27:49;12.07;;;6.80;;
36253;SDS011;22291;52.250;21.228;2023-05-10T02:30:18;11.35;;;5.95;;
36253;SDS011;22291;52.250;21.228;2023-05-10T02:32:46;10.45;;;6.58;;
36253;SDS011;22291;52.250;21.228;2023-05-10T02:35:15;12.13;;;5.67;;
36253;SDS011;22291;52.250;21.228;2023-05-10T02:37:42;9.63;;;5.60;;
36253;SDS011;22291;52.250;21.228;2023-05-10T02:40:11;9.00;;;6.40;;
36253;SDS011;22291;52.250;21.228;2023-05-10T02:42:38;11.88;;;5.85;;
36253;SDS011;22291;52.250;21.228;2023-05-10T02:45:10;13.32;;;6.17;;
36253;SDS011;22291;52.250;21.228;2023-05-10T02:47:38;10.35;;;6.05;;
36253;SDS011;22291;52.250;21.228;2023-05-10T02:50:05;12.93;;;5.80;;
36253;SDS011;22291;52.250;21.228;2023-05-10T02:52:37;9.78;;;5.97;;
36253;SDS011;22291;52.250;21.228;2023-05-10T02:55:07;10.65;;;5.50;;
36253;SDS011;22291;52.250;21.228;2023-05-10T02:57:38;9.45;;;5.85;;
36253;SDS011;22291;52.250;21.228;2023-05-10T03:00:09;9.65;;;5.42;;
36253;SDS011;22291;52.250;21.228;2023-05-10T03:02:37;9.33;;;5.15;;
36253;SDS011;22291;52.250;21.228;2023-05-10T03:05:03;10.28;;;5.92;;
36253;SDS011;22291;52.250;21.228;2023-05-10T03:07:31;11.90;;;5.78;;
36253;SDS011;22291;52.250;21.228;2023-05-10T03:09:58;8.90;;;5.80;;
36253;SDS011;22291;52.250;21.228;2023-05-10T03:12:33;12.13;;;5.60;;
36253;SDS011;22291;52.250;21.228;2023-05-10T03:15:51;11.05;;;5.85;;
36253;SDS011;22291;52.250;21.228;2023-05-10T03:18:44;9.63;;;5.40;;
36253;SDS011;22291;52.250;21.228;2023-05-10T03:21:18;7.33;;;5.17;;
36253;SDS011;22291;52.250;21.228;2023-05-10T03:23:55;10.50;;;6.62;;
36253;SDS011;22291;52.250;21.228;2023-05-10T08:59:37;4.53;;;2.08;;
36253;SDS011;22291;52.250;21.228;2023-05-10T09:02:05;4.05;;;2.42;;
36253;SDS011;22291;52.250;21.228;2023-05-10T09:04:35;5.65;;;2.40;;
36253;SDS011;22291;52.250;21.228;2023-05-10T09:07:01;9.95;;;2.35;;
36253;SDS011;22291;52.250;21.228;2023-05-10T09:09:27;3.77;;;1.98;;
36253;SDS011;22291;52.250;21.228;2023-05-10T09:11:54;7.03;;;3.00;;
36253;SDS011;22291;52.250;21.228;2023-05-10T09:14:21;6.17;;;2.10;;
36253;SDS011;22291;52.250;21.228;2023-05-10T09:16:50;3.05;;;2.10;;
36253;SDS011;22291;52.250;21.228;2023-05-10T09:19:16;4.95;;;1.90;;
36253;SDS011;22291;52.250;21.228;2023-05-10T09:21:43;5.08;;;2.77;;
36253;SDS011;22291;52.250;21.228;2023-05-10T09:24:09;6.40;;;2.20;;
36253;SDS011;22291;52.250;21.228;2023-05-10T09:26:35;4.17;;;2.10;;
36253;SDS011;22291;52.250;21.228;2023-05-10T09:29:14;5.57;;;2.20;;
36253;SDS011;22291;52.250;21.228;2023-05-10T09:31:45;5.25;;;2.22;;
36253;SDS011;22291;52.250;21.228;2023-05-10T09:34:17;2.70;;;2.37;;
36253;SDS011;22291;52.250;21.228;2023-05-10T09:36:51;6.30;;;2.20;;
36253;SDS011;22291;52.250;21.228;2023-05-10T09:39:29;2.65;;;2.02;;
36253;SDS011;22291;52.250;21.228;2023-05-10T09:42:03;4.85;;;2.20;;
36253;SDS011;22291;52.250;21.228;2023-05-10T09:44:33;4.05;;;2.47;;
36253;SDS011;22291;52.250;21.228;2023-05-10T09:47:04;5.72;;;2.40;;
36253;SDS011;22291;52.250;21.228;2023-05-10T09:49:28;7.15;;;2.08;;
36253;SDS011;22291;52.250;21.228;2023-05-10T09:52:04;3.37;;;2.45;;
36253;SDS011;22291;52.250;21.228;2023-05-10T09:54:33;7.03;;;2.30;;
36253;SDS011;22291;52.250;21.228;2023-05-10T09:57:00;5.78;;;2.35;;
36253;SDS011;22291;52.250;21.228;2023-05-10T09:59:27;7.03;;;2.30;;
36253;SDS011;22291;52.250;21.228;2023-05-10T10:01:58;2.37;;;1.80;;
36253;SDS011;22291;52.250;21.228;2023-05-10T10:04:25;8.73;;;2.92;;
36253;SDS011;22291;52.250;21.228;2023-05-10T10:06:59;6.85;;;2.10;;
36253;SDS011;22291;52.250;21.228;2023-05-10T10:09:29;8.85;;;2.27;;
36253;SDS011;22291;52.250;21.228;2023-05-10T10:11:57;4.92;;;2.52;;
36253;SDS011;22291;52.250;21.228;2023-05-10T10:14:24;4.80;;;2.83;;
36253;SDS011;22291;52.250;21.228;2023-05-10T10:16:50;5.92;;;2.27;;
36253;SDS011;22291;52.250;21.228;2023-05-10T10:19:19;7.37;;;2.40;;
36253;SDS011;22291;52.250;21.228;2023-05-10T10:21:51;2.70;;;2.00;;
36253;SDS011;22291;52.250;21.228;2023-05-10T10:24:16;7.03;;;2.52;;
36253;SDS011;22291;52.250;21.228;2023-05-10T10:26:42;7.58;;;2.62;;
36253;SDS011;22291;52.250;21.228;2023-05-10T10:32:19;6.35;;;2.50;;
36253;SDS011;22291;52.250;21.228;2023-05-10T10:34:49;3.80;;;2.10;;
36253;SDS011;22291;52.250;21.228;2023-05-10T10:37:16;65.28;;;60.83;;
36253;SDS011;22291;52.250;21.228;2023-05-10T10:39:43;7.95;;;2.45;;
36253;SDS011;22291;52.250;21.228;2023-05-10T10:42:09;5.05;;;2.83;;
36253;SDS011;22291;52.250;21.228;2023-05-10T10:44:36;6.87;;;2.70;;
36253;SDS011;22291;52.250;21.228;2023-05-10T10:52:27;7.28;;;2.15;;
36253;SDS011;22291;52.250;21.228;2023-05-10T10:55:11;3.20;;;2.22;;
36253;SDS011;22291;52.250;21.228;2023-05-10T10:57:48;5.92;;;2.50;;
36253;SDS011;22291;52.250;21.228;2023-05-10T11:02:56;10.72;;;3.55;;
36253;SDS011;22291;52.250;21.228;2023-05-10T11:08:20;3.47;;;2.43;;
36253;SDS011;22291;52.250;21.228;2023-05-10T11:16:40;8.45;;;2.70;;
36253;SDS011;22291;52.250;21.228;2023-05-10T11:21:28;8.18;;;3.62;;
36253;SDS011;22291;52.250;21.228;2023-05-10T11:24:00;7.65;;;3.40;;
36253;SDS011;22291;52.250;21.228;2023-05-10T11:26:33;4.95;;;2.92;;
36253;SDS011;22291;52.250;21.228;2023-05-10T11:29:00;10.20;;;2.60;;
36253;SDS011;22291;52.250;21.228;2023-05-10T11:31:29;4.92;;;2.62;;
36253;SDS011;22291;52.250;21.228;2023-05-10T11:33:57;13.18;;;9.48;;
36253;SDS011;22291;52.250;21.228;2023-05-10T11:36:28;11.53;;;10.38;;
36253;SDS011;22291;52.250;21.228;2023-05-10T11:39:01;3.77;;;2.37;;
36253;SDS011;22291;52.250;21.228;2023-05-10T11:41:29;5.45;;;2.50;;
36253;SDS011;22291;52.250;21.228;2023-05-10T11:43:57;3.35;;;2.00;;
36253;SDS011;22291;52.250;21.228;2023-05-10T11:46:25;4.92;;;3.08;;
36253;SDS011;22291;52.250;21.228;2023-05-10T11:49:00;4.08;;;2.40;;
36253;SDS011;22291;52.250;21.228;2023-05-10T11:51:29;3.87;;;2.12;;
36253;SDS011;22291;52.250;21.228;2023-05-10T11:53:59;5.97;;;2.40;;
36253;SDS011;22291;52.250;21.228;2023-05-10T11:56:25;4.28;;;2.27;;
36253;SDS011;22291;52.250;21.228;2023-05-10T11:58:53;4.92;;;1.92;;
36253;SDS011;22291;52.250;21.228;2023-05-10T12:01:22;5.65;;;2.20;;
36253;SDS011;22291;52.250;21.228;2023-05-10T12:03:51;5.78;;;2.45;;
36253;SDS011;22291;52.250;21.228;2023-05-10T12:06:20;9.38;;;2.25;;
36253;SDS011;22291;52.250;21.228;2023-05-10T12:08:48;5.50;;;2.15;;
36253;SDS011;22291;52.250;21.228;2023-05-10T12:11:17;7.25;;;2.65;;
36253;SDS011;22291;52.250;21.228;2023-05-10T12:13:44;4.58;;;2.15;;
36253;SDS011;22291;52.250;21.228;2023-05-10T12:16:13;5.67;;;2.22;;
36253;SDS011;22291;52.250;21.228;2023-05-10T12:18:43;3.37;;;2.08;;
36253;SDS011;22291;52.250;21.228;2023-05-10T12:21:11;7.42;;;2.55;;
36253;SDS011;22291;52.250;21.228;2023-05-10T12:23:39;6.95;;;2.45;;
36253;SDS011;22291;52.250;21.228;2023-05-10T12:26:05;5.80;;;2.33;;
36253;SDS011;22291;52.250;21.228;2023-05-10T12:28:34;6.15;;;2.33;;
36253;SDS011;22291;52.250;21.228;2023-05-10T12:31:01;7.20;;;2.30;;
36253;SDS011;22291;52.250;21.228;2023-05-10T12:33:35;5.22;;;2.20;;
36253;SDS011;22291;52.250;21.228;2023-05-10T12:36:05;3.52;;;2.05;;
36253;SDS011;22291;52.250;21.228;2023-05-10T12:38:33;4.75;;;2.30;;
36253;SDS011;22291;52.250;21.228;2023-05-10T12:41:08;5.30;;;2.40;;
36253;SDS011;22291;52.250;21.228;2023-05-10T12:43:33;4.53;;;2.40;;
36253;SDS011;22291;52.250;21.228;2023-05-10T12:46:18;6.92;;;2.72;;
36253;SDS011;22291;52.250;21.228;2023-05-10T12:48:43;4.70;;;2.60;;
36253;SDS011;22291;52.250;21.228;2023-05-10T12:51:12;7.87;;;2.50;;
36253;SDS011;22291;52.250;21.228;2023-05-10T12:53:40;3.90;;;2.30;;
36253;SDS011;22291;52.250;21.228;2023-05-10T12:56:07;7.05;;;2.37;;
36253;SDS011;22291;52.250;21.228;2023-05-10T12:58:33;6.17;;;2.40;;
36253;SDS011;22291;52.250;21.228;2023-05-10T13:01:00;4.60;;;2.37;;
36253;SDS011;22291;52.250;21.228;2023-05-10T13:03:28;6.22;;;3.10;;
36253;SDS011;22291;52.250;21.228;2023-05-10T13:05:54;8.20;;;2.83;;
36253;SDS011;22291;52.250;21.228;2023-05-10T13:08:21;5.40;;;2.70;;
36253;SDS011;22291;52.250;21.228;2023-05-10T13:10:47;4.05;;;2.52;;
36253;SDS011;22291;52.250;21.228;2023-05-10T13:13:15;7.50;;;2.70;;
36253;SDS011;22291;52.250;21.228;2023-05-10T13:15:41;4.55;;;2.50;;
36253;SDS011;22291;52.250;21.228;2023-05-10T13:18:08;4.87;;;2.92;;
36253;SDS011;22291;52.250;21.228;2023-05-10T13:20:35;5.17;;;4.67;;
36253;SDS011;22291;52.250;21.228;2023-05-10T13:23:01;6.03;;;4.67;;
36253;SDS011;22291;52.250;21.228;2023-05-10T13:25:28;9.15;;;4.55;;
36253;SDS011;22291;52.250;21.228;2023-05-10T13:27:55;11.00;;;2.87;;
36253;SDS011;22291;52.250;21.228;2023-05-10T13:30:22;3.02;;;2.25;;
36253;SDS011;22291;52.250;21.228;2023-05-10T13:32:49;6.15;;;2.17;;
36253;SDS011;22291;52.250;21.228;2023-05-10T13:35:16;7.42;;;2.33;;
36253;SDS011;22291;52.250;21.228;2023-05-10T13:37:52;7.58;;;2.27;;
36253;SDS011;22291;52.250;21.228;2023-05-10T13:42:51;4.65;;;2.30;;
36253;SDS011;22291;52.250;21.228;2023-05-10T13:45:21;4.03;;;2.10;;
36253;SDS011;22291;52.250;21.228;2023-05-10T13:47:50;6.65;;;2.37;;
36253;SDS011;22291;52.250;21.228;2023-05-10T13:50:19;6.37;;;2.27;;
36253;SDS011;22291;52.250;21.228;2023-05-10T13:52:47;4.08;;;2.45;;
36253;SDS011;22291;52.250;21.228;2023-05-10T14:08:51;3.45;;;2.27;;
36253;SDS011;22291;52.250;21.228;2023-05-10T14:11:19;2.67;;;2.30;;
36253;SDS011;22291;52.250;21.228;2023-05-10T14:13:46;4.25;;;2.10;;
36253;SDS011;22291;52.250;21.228;2023-05-10T14:16:13;4.25;;;2.25;;
36253;SDS011;22291;52.250;21.228;2023-05-10T14:18:40;9.23;;;2.40;;
36253;SDS011;22291;52.250;21.228;2023-05-10T14:21:07;4.25;;;2.20;;
36253;SDS011;22291;52.250;21.228;2023-05-10T14:23:34;4.15;;;2.40;;
36253;SDS011;22291;52.250;21.228;2023-05-10T14:26:02;4.90;;;2.30;;
36253;SDS011;22291;52.250;21.228;2023-05-10T14:28:31;5.60;;;2.65;;
36253;SDS011;22291;52.250;21.228;2023-05-10T14:52:01;4.95;;;2.10;;
36253;SDS011;22291;52.250;21.228;2023-05-10T14:54:46;7.17;;;2.45;;
36253;SDS011;22291;52.250;21.228;2023-05-10T14:57:14;3.67;;;2.10;;
36253;SDS011;22291;52.250;21.228;2023-05-10T14:59:41;4.25;;;2.83;;
36253;SDS011;22291;52.250;21.228;2023-05-10T15:02:09;5.22;;;1.85;;
36253;SDS011;22291;52.250;21.228;2023-05-10T15:04:37;7.33;;;2.80;;
36253;SDS011;22291;52.250;21.228;2023-05-10T15:07:04;4.03;;;2.25;;
36253;SDS011;22291;52.250;21.228;2023-05-10T15:09:33;7.30;;;3.02;;
36253;SDS011;22291;52.250;21.228;2023-05-10T15:12:01;6.47;;;2.45;;
36253;SDS011;22291;52.250;21.228;2023-05-10T15:14:28;7.08;;;2.33;;
36253;SDS011;22291;52.250;21.228;2023-05-10T15:16:56;5.53;;;2.15;;
36253;SDS011;22291;52.250;21.228;2023-05-10T15:19:23;6.47;;;2.42;;
36253;SDS011;22291;52.250;21.228;2023-05-10T15:21:49;4.10;;;2.00;;
36253;SDS011;22291;52.250;21.228;2023-05-10T15:24:16;3.92;;;2.40;;
36253;SDS011;22291;52.250;21.228;2023-05-10T15:26:42;3.95;;;2.50;;
36253;SDS011;22291;52.250;21.228;2023-05-10T15:29:09;5.75;;;2.50;;
36253;SDS011;22291;52.250;21.228;2023-05-10T15:31:35;7.60;;;2.40;;
36253;SDS011;22291;52.250;21.228;2023-05-10T15:34:02;5.05;;;2.12;;
36253;SDS011;22291;52.250;21.228;2023-05-10T15:36:28;3.00;;;2.20;;
36253;SDS011;22291;52.250;21.228;2023-05-10T15:38:55;12.13;;;9.45;;
36253;SDS011;22291;52.250;21.228;2023-05-10T15:41:21;5.17;;;2.50;;
36253;SDS011;22291;52.250;21.228;2023-05-10T15:43:48;6.45;;;2.55;;
36253;SDS011;22291;52.250;21.228;2023-05-10T15:46:15;7.25;;;2.70;;
36253;SDS011;22291;52.250;21.228;2023-05-10T15:48:42;3.92;;;2.00;;
36253;SDS011;22291;52.250;21.228;2023-05-10T15:51:08;2.58;;;2.00;;
36253;SDS011;22291;52.250;21.228;2023-05-10T15:53:35;3.95;;;2.17;;
36253;SDS011;22291;52.250;21.228;2023-05-10T15:56:01;5.37;;;2.80;;
36253;SDS011;22291;52.250;21.228;2023-05-10T15:58:28;6.70;;;2.60;;
36253;SDS011;22291;52.250;21.228;2023-05-10T16:00:55;9.95;;;2.42;;
36253;SDS011;22291;52.250;21.228;2023-05-10T16:03:22;4.00;;;2.08;;
36253;SDS011;22291;52.250;21.228;2023-05-10T16:05:48;3.98;;;2.15;;
36253;SDS011;22291;52.250;21.228;2023-05-10T16:08:15;5.75;;;2.27;;
36253;SDS011;22291;52.250;21.228;2023-05-10T16:10:41;5.00;;;2.12;;
36253;SDS011;22291;52.250;21.228;2023-05-10T16:13:08;7.75;;;2.20;;
36253;SDS011;22291;52.250;21.228;2023-05-10T16:15:35;3.12;;;2.08;;
36253;SDS011;22291;52.250;21.228;2023-05-10T16:18:01;5.12;;;2.10;;
36253;SDS011;22291;52.250;21.228;2023-05-10T16:20:28;3.33;;;1.80;;
36253;SDS011;22291;52.250;21.228;2023-05-10T16:22:54;4.58;;;2.40;;
36253;SDS011;22291;52.250;21.228;2023-05-10T16:25:21;3.15;;;1.72;;
36253;SDS011;22291;52.250;21.228;2023-05-10T16:27:47;4.10;;;1.92;;
36253;SDS011;22291;52.250;21.228;2023-05-10T16:30:13;7.47;;;2.20;;
36253;SDS011;22291;52.250;21.228;2023-05-10T16:32:40;5.37;;;2.25;;
36253;SDS011;22291;52.250;21.228;2023-05-10T16:35:07;3.52;;;2.15;;
36253;SDS011;22291;52.250;21.228;2023-05-10T16:37:34;4.05;;;1.90;;
36253;SDS011;22291;52.250;21.228;2023-05-10T16:40:00;5.85;;;2.22;;
36253;SDS011;22291;52.250;21.228;2023-05-10T16:42:27;3.98;;;2.05;;
36253;SDS011;22291;52.250;21.228;2023-05-10T16:44:54;5.12;;;2.20;;
36253;SDS011;22291;52.250;21.228;2023-05-10T16:47:21;2.80;;;2.52;;
36253;SDS011;22291;52.250;21.228;2023-05-10T16:49:49;5.03;;;2.35;;
36253;SDS011;22291;52.250;21.228;2023-05-10T16:52:16;3.60;;;2.40;;
36253;SDS011;22291;52.250;21.228;2023-05-10T16:54:42;3.65;;;1.90;;
36253;SDS011;22291;52.250;21.228;2023-05-10T16:57:09;5.15;;;2.30;;
36253;SDS011;22291;52.250;21.228;2023-05-10T16:59:36;2.83;;;2.50;;
36253;SDS011;22291;52.250;21.228;2023-05-10T17:02:02;3.80;;;2.30;;
36253;SDS011;22291;52.250;21.228;2023-05-10T17:04:29;3.12;;;2.00;;
36253;SDS011;22291;52.250;21.228;2023-05-10T17:06:55;3.25;;;2.42;;
36253;SDS011;22291;52.250;21.228;2023-05-10T17:09:22;2.83;;;2.22;;
36253;SDS011;22291;52.250;21.228;2023-05-10T17:11:48;4.00;;;2.22;;
36253;SDS011;22291;52.250;21.228;2023-05-10T17:14:15;3.40;;;2.15;;
36253;SDS011;22291;52.250;21.228;2023-05-10T17:16:42;3.83;;;2.30;;
36253;SDS011;22291;52.250;21.228;2023-05-10T17:19:08;2.60;;;1.90;;
36253;SDS011;22291;52.250;21.228;2023-05-10T17:21:34;4.45;;;2.30;;
36253;SDS011;22291;52.250;21.228;2023-05-10T17:24:01;6.35;;;2.40;;
36253;SDS011;22291;52.250;21.228;2023-05-10T17:26:27;8.75;;;2.60;;
36253;SDS011;22291;52.250;21.228;2023-05-10T17:28:54;7.85;;;5.03;;
36253;SDS011;22291;52.250;21.228;2023-05-10T17:31:21;5.90;;;2.37;;
36253;SDS011;22291;52.250;21.228;2023-05-10T17:33:47;4.42;;;2.55;;
36253;SDS011;22291;52.250;21.228;2023-05-10T17:36:13;4.05;;;1.98;;
36253;SDS011;22291;52.250;21.228;2023-05-10T17:38:40;4.33;;;2.35;;
36253;SDS011;22291;52.250;21.228;2023-05-10T17:41:07;8.73;;;2.72;;
36253;SDS011;22291;52.250;21.228;2023-05-10T17:43:34;7.85;;;3.22;;
36253;SDS011;22291;52.250;21.228;2023-05-10T17:46:01;4.78;;;3.15;;
36253;SDS011;22291;52.250;21.228;2023-05-10T17:48:28;17.87;;;3.30;;
36253;SDS011;22291;52.250;21.228;2023-05-10T17:50:54;5.00;;;2.80;;
36253;SDS011;22291;52.250;21.228;2023-05-10T17:53:21;6.80;;;2.98;;
36253;SDS011;22291;52.250;21.228;2023-05-10T17:55:47;7.05;;;3.05;;
36253;SDS011;22291;52.250;21.228;2023-05-10T17:58:16;8.30;;;3.08;;
36253;SDS011;22291;52.250;21.228;2023-05-10T18:00:42;5.83;;;3.30;;
36253;SDS011;22291;52.250;21.228;2023-05-10T18:03:09;6.15;;;3.12;;
36253;SDS011;22291;52.250;21.228;2023-05-10T18:05:36;8.95;;;3.08;;
36253;SDS011;22291;52.250;21.228;2023-05-10T18:08:04;7.97;;;3.20;;
36253;SDS011;22291;52.250;21.228;2023-05-10T18:10:31;6.92;;;2.98;;
36253;SDS011;22291;52.250;21.228;2023-05-10T18:12:58;4.87;;;3.05;;
36253;SDS011;22291;52.250;21.228;2023-05-10T18:15:26;9.25;;;3.30;;
36253;SDS011;22291;52.250;21.228;2023-05-10T18:17:53;5.70;;;3.52;;
36253;SDS011;22291;52.250;21.228;2023-05-10T18:20:21;5.42;;;3.08;;
36253;SDS011;22291;52.250;21.228;2023-05-10T18:22:47;11.15;;;3.33;;
36253;SDS011;22291;52.250;21.228;2023-05-10T18:25:14;7.50;;;4.33;;
36253;SDS011;22291;52.250;21.228;2023-05-10T18:27:40;15.55;;;7.12;;
36253;SDS011;22291;52.250;21.228;2023-05-10T18:30:07;10.45;;;3.50;;
36253;SDS011;22291;52.250;21.228;2023-05-10T18:32:36;5.53;;;2.77;;
36253;SDS011;22291;52.250;21.228;2023-05-10T18:35:04;8.28;;;3.05;;
36253;SDS011;22291;52.250;21.228;2023-05-10T18:37:32;7.30;;;3.12;;
36253;SDS011;22291;52.250;21.228;2023-05-10T18:39:59;9.93;;;3.65;;
36253;SDS011;22291;52.250;21.228;2023-05-10T18:42:26;5.80;;;4.25;;
36253;SDS011;22291;52.250;21.228;2023-05-10T18:44:53;5.87;;;4.10;;
36253;SDS011;22291;52.250;21.228;2023-05-10T18:47:19;8.43;;;3.33;;
36253;SDS011;22291;52.250;21.228;2023-05-10T18:49:46;4.53;;;3.42;;
36253;SDS011;22291;52.250;21.228;2023-05-10T18:52:12;7.17;;;3.40;;
36253;SDS011;22291;52.250;21.228;2023-05-10T18:54:40;7.12;;;3.70;;
36253;SDS011;22291;52.250;21.228;2023-05-10T18:57:07;7.80;;;3.72;;
36253;SDS011;22291;52.250;21.228;2023-05-10T18:59:34;6.37;;;3.95;;
36253;SDS011;22291;52.250;21.228;2023-05-10T19:02:01;15.58;;;6.00;;
36253;SDS011;22291;52.250;21.228;2023-05-10T19:04:27;10.30;;;5.28;;
36253;SDS011;22291;52.250;21.228;2023-05-10T19:06:54;12.50;;;6.00;;
36253;SDS011;22291;52.250;21.228;2023-05-10T19:09:21;6.70;;;5.10;;
36253;SDS011;22291;52.250;21.228;2023-05-10T19:11:49;6.50;;;5.35;;
36253;SDS011;22291;52.250;21.228;2023-05-10T19:14:16;12.63;;;6.35;;
36253;SDS011;22291;52.250;21.228;2023-05-10T19:16:43;10.10;;;6.10;;
36253;SDS011;22291;52.250;21.228;2023-05-10T19:19:09;19.52;;;10.70;;
36253;SDS011;22291;52.250;21.228;2023-05-10T19:21:36;15.78;;;8.48;;
36253;SDS011;22291;52.250;21.228;2023-05-10T19:24:02;16.97;;;8.23;;
36253;SDS011;22291;52.250;21.228;2023-05-10T19:26:29;14.78;;;6.72;;
36253;SDS011;22291;52.250;21.228;2023-05-10T19:28:56;9.88;;;5.92;;
36253;SDS011;22291;52.250;21.228;2023-05-10T19:31:23;15.43;;;6.53;;
36253;SDS011;22291;52.250;21.228;2023-05-10T19:33:53;16.50;;;7.15;;
36253;SDS011;22291;52.250;21.228;2023-05-10T19:36:19;14.78;;;9.00;;
36253;SDS011;22291;52.250;21.228;2023-05-10T19:38:45;16.55;;;7.83;;
36253;SDS011;22291;52.250;21.228;2023-05-10T19:41:12;19.00;;;8.40;;
36253;SDS011;22291;52.250;21.228;2023-05-10T19:43:38;20.95;;;9.43;;
36253;SDS011;22291;52.250;21.228;2023-05-10T19:46:06;46.83;;;21.85;;
36253;SDS011;22291;52.250;21.228;2023-05-10T19:48:33;33.48;;;17.40;;
36253;SDS011;22291;52.250;21.228;2023-05-10T19:51:00;23.07;;;11.33;;
36253;SDS011;22291;52.250;21.228;2023-05-10T19:53:28;22.87;;;9.80;;
36253;SDS011;22291;52.250;21.228;2023-05-10T19:55:56;19.98;;;10.15;;
36253;SDS011;22291;52.250;21.228;2023-05-10T19:58:33;21.55;;;10.00;;
36253;SDS011;22291;52.250;21.228;2023-05-10T20:01:00;21.68;;;11.15;;
36253;SDS011;22291;52.250;21.228;2023-05-10T20:03:26;16.67;;;9.08;;
36253;SDS011;22291;52.250;21.228;2023-05-10T20:05:53;20.43;;;9.20;;
36253;SDS011;22291;52.250;21.228;2023-05-10T20:08:19;16.60;;;8.88;;
36253;SDS011;22291;52.250;21.228;2023-05-10T20:10:45;21.48;;;10.45;;
36253;SDS011;22291;52.250;21.228;2023-05-10T20:13:12;18.50;;;9.65;;
36253;SDS011;22291;52.250;21.228;2023-05-10T20:15:38;28.70;;;12.03;;
36253;SDS011;22291;52.250;21.228;2023-05-10T20:18:04;22.90;;;10.20;;
36253;SDS011;22291;52.250;21.228;2023-05-10T20:20:30;23.85;;;11.25;;
36253;SDS011;22291;52.250;21.228;2023-05-10T20:22:57;84.70;;;78.00;;
36253;SDS011;22291;52.250;21.228;2023-05-10T20:25:23;91.08;;;83.85;;
36253;SDS011;22291;52.250;21.228;2023-05-10T20:27:50;91.30;;;83.82;;
36253;SDS011;22291;52.250;21.228;2023-05-10T20:30:16;98.17;;;89.83;;
36253;SDS011;22291;52.250;21.228;2023-05-10T20:32:43;111.32;;;100.40;;
36253;SDS011;22291;52.250;21.228;2023-05-10T20:35:10;31.37;;;17.37;;
36253;SDS011;22291;52.250;21.228;2023-05-10T20:37:37;21.85;;;11.63;;
36253;SDS011;22291;52.250;21.228;2023-05-10T20:40:06;25.20;;;10.70;;
36253;SDS011;22291;52.250;21.228;2023-05-10T20:42:34;36.38;;;19.95;;
36253;SDS011;22291;52.250;21.228;2023-05-10T20:45:01;49.53;;;26.30;;
36253;SDS011;22291;52.250;21.228;2023-05-10T20:47:30;23.30;;;12.37;;
36253;SDS011;22291;52.250;21.228;2023-05-10T20:49:58;15.50;;;9.08;;
36253;SDS011;22291;52.250;21.228;2023-05-10T20:52:28;17.85;;;8.95;;
36253;SDS011;22291;52.250;21.228;2023-05-10T20:54:55;17.05;;;10.05;;
36253;SDS011;22291;52.250;21.228;2023-05-10T20:57:23;15.95;;;7.75;;
36253;SDS011;22291;52.250;21.228;2023-05-10T20:59:51;14.65;;;7.35;;
36253;SDS011;22291;52.250;21.228;2023-05-10T21:02:18;19.70;;;7.87;;
36253;SDS011;22291;52.250;21.228;2023-05-10T21:04:46;12.88;;;6.87;;
36253;SDS011;22291;52.250;21.228;2023-05-10T21:07:13;11.83;;;6.42;;
36253;SDS011;22291;52.250;21.228;2023-05-10T21:09:42;13.57;;;7.53;;
36253;SDS011;22291;52.250;21.228;2023-05-10T21:12:09;15.98;;;7.42;;
36253;SDS011;22291;52.250;21.228;2023-05-10T21:14:36;15.75;;;7.90;;
36253;SDS011;22291;52.250;21.228;2023-05-10T21:17:03;11.57;;;6.10;;
36253;SDS011;22291;52.250;21.228;2023-05-10T21:19:31;12.35;;;6.60;;